Time;durP1;ratioP1;P1;durP2;ratioP2;P2;SDS_P1;SDS_P2;PMS_P1;PMS_P2;Temp;Humidity;BMP_temperature;BMP_pressure;BME280_temperature;BME280_humidity;BME280_pressure;Samples;Min_cycle;Max_cycle;Signal;HPM_P1;HPM_P2
2021/09/06 00:00:06;;;;;;;13.38;9.70;;;;;;;14.63;73.83;96808.63;4951161;29;20051;-76
2021/09/06 00:02:33;;;;;;;13.57;9.25;;;;;;;14.54;74.01;96809.47;4952294;29;20055;-75
2021/09/06 00:05:00;;;;;;;12.00;8.93;;;;;;;14.56;73.82;96811.88;4952430;28;20052;-76
2021/09/06 00:07:26;;;;;;;12.77;9.13;;;;;;;14.55;73.93;96810.28;4955569;29;20427;-76
2021/09/06 00:10:01;;;;;;;12.80;9.32;;;;;;;14.51;74.21;96810.16;4955990;29;20050;-76
2021/09/06 00:12:28;;;;;;;15.38;9.40;;;;;;;14.53;73.69;96813.34;4955535;29;20043;-77
2021/09/06 00:14:54;;;;;;;14.25;9.30;;;;;;;14.51;73.83;96809.31;4955652;29;20047;-77
2021/09/06 00:17:21;;;;;;;12.50;9.30;;;;;;;14.46;74.37;96814.97;4955381;29;20054;-76
2021/09/06 00:19:47;;;;;;;13.98;9.20;;;;;;;14.46;74.29;96813.06;4955600;29;20051;-76
2021/09/06 00:22:14;;;;;;;13.38;10.00;;;;;;;14.46;73.75;96821.28;4955022;29;20051;-76
2021/09/06 00:24:40;;;;;;;14.45;10.65;;;;;;;14.43;74.28;96815.66;4955795;29;20077;-77
2021/09/06 00:27:08;;;;;;;19.70;10.63;;;;;;;14.36;74.08;96819.72;4955106;29;20047;-77
2021/09/06 00:29:35;;;;;;;13.73;9.88;;;;;;;14.33;74.43;96817.63;4955653;29;20070;-76
2021/09/06 00:32:03;;;;;;;13.27;9.23;;;;;;;14.33;74.74;96825.03;4954285;29;20532;-79
2021/09/06 00:34:30;;;;;;;15.13;9.52;;;;;;;14.38;73.91;96821.31;4955604;29;20066;-75
2021/09/06 00:36:57;;;;;;;14.00;9.43;;;;;;;14.33;74.52;96819.56;4955358;29;20059;-78
2021/09/06 00:39:23;;;;;;;13.70;8.95;;;;;;;14.31;74.05;96819.91;4954836;29;20046;-76
2021/09/06 00:41:49;;;;;;;13.95;9.73;;;;;;;14.34;73.55;96818.41;4955240;29;20051;-77
2021/09/06 00:44:17;;;;;;;12.82;8.57;;;;;;;14.32;73.91;96818.75;4954720;29;20054;-76
2021/09/06 00:46:46;;;;;;;13.02;9.35;;;;;;;14.29;73.52;96822.16;4955126;29;20633;-76
2021/09/06 00:49:14;;;;;;;13.88;8.73;;;;;;;14.25;73.91;96823.97;4954818;29;20054;-76
2021/09/06 00:51:41;;;;;;;11.93;8.95;;;;;;;14.18;74.11;96823.66;4955090;29;20043;-76
2021/09/06 00:54:08;;;;;;;13.23;9.80;;;;;;;14.13;74.53;96818.38;4954718;29;20047;-76
2021/09/06 00:56:35;;;;;;;13.55;8.98;;;;;;;14.08;74.10;96818.56;4955046;29;20080;-76
2021/09/06 00:59:02;;;;;;;13.02;9.32;;;;;;;14.03;74.09;96821.47;4954493;29;20043;-76
2021/09/06 01:01:30;;;;;;;12.20;9.27;;;;;;;14.00;74.80;96813.94;4954258;29;20071;-76
2021/09/06 01:03:57;;;;;;;17.83;10.20;;;;;;;13.98;75.36;96819.72;4955107;29;20051;-77
2021/09/06 01:06:23;;;;;;;12.48;9.30;;;;;;;13.97;75.61;96820.84;4954504;29;20407;-75
2021/09/06 01:08:49;;;;;;;17.30;10.65;;;;;;;14.02;74.92;96811.66;4954880;29;20059;-76
2021/09/06 01:11:16;;;;;;;12.70;10.38;;;;;;;14.00;75.16;96812.00;4954420;29;20048;-76
2021/09/06 01:13:43;;;;;;;14.07;10.30;;;;;;;13.96;75.89;96815.72;4954622;29;20062;-76
2021/09/06 01:16:09;;;;;;;12.32;9.40;;;;;;;13.94;75.58;96817.97;4954297;29;20134;-78
2021/09/06 01:18:37;;;;;;;13.75;9.20;;;;;;;13.94;75.76;96815.22;4953660;28;20055;-77
2021/09/06 01:21:04;;;;;;;15.43;9.82;;;;;;;13.90;75.32;96817.03;4953936;29;20055;-76
2021/09/06 01:23:31;;;;;;;14.93;9.70;;;;;;;13.91;74.51;96813.16;4954630;29;20380;-75
2021/09/06 01:25:58;;;;;;;14.15;9.80;;;;;;;13.90;74.77;96817.03;4954506;29;20055;-76
2021/09/06 01:28:25;;;;;;;15.88;10.45;;;;;;;13.84;74.97;96811.72;4949483;29;20047;-75
2021/09/06 01:30:51;;;;;;;13.60;9.75;;;;;;;13.82;75.17;96816.72;4954419;29;20047;-76
2021/09/06 01:33:18;;;;;;;17.70;9.95;;;;;;;13.82;75.31;96811.25;4953367;28;20058;-76
2021/09/06 01:35:44;;;;;;;15.63;10.88;;;;;;;13.77;75.40;96814.16;4948497;29;20059;-76
2021/09/06 01:38:11;;;;;;;15.27;10.65;;;;;;;13.73;75.91;96818.69;4953772;29;20526;-78
2021/09/06 01:40:37;;;;;;;14.13;9.77;;;;;;;13.78;74.67;96813.06;4954747;29;20059;-76
2021/09/06 01:43:06;;;;;;;15.18;9.70;;;;;;;13.75;74.86;96813.69;4954006;29;20047;-76
2021/09/06 01:45:32;;;;;;;15.00;10.40;;;;;;;13.70;74.98;96824.00;4954062;29;20058;-78
2021/09/06 01:47:59;;;;;;;17.00;10.07;;;;;;;13.67;75.06;96811.78;4954332;29;20532;-76
2021/09/06 01:50:26;;;;;;;11.90;8.90;;;;;;;13.62;75.76;96817.41;4953753;29;20054;-76
2021/09/06 01:52:52;;;;;;;12.73;9.63;;;;;;;13.60;75.34;96824.38;4954126;29;20043;-75
2021/09/06 01:55:19;;;;;;;12.30;9.05;;;;;;;13.55;75.51;96822.59;4953516;29;20047;-76
2021/09/06 01:57:46;;;;;;;11.95;8.13;;;;;;;13.49;75.62;96815.69;4954029;29;20047;-77
2021/09/06 02:00:14;;;;;;;12.02;8.27;;;;;;;13.44;75.59;96813.13;4953480;28;20134;-75
2021/09/06 02:02:41;;;;;;;12.32;8.45;;;;;;;13.42;75.58;96818.13;4953822;28;20047;-76
2021/09/06 02:05:08;;;;;;;13.13;9.43;;;;;;;13.40;75.68;96809.44;4948947;29;20043;-76
2021/09/06 02:07:34;;;;;;;12.77;8.82;;;;;;;13.39;75.89;96824.25;4953944;29;20058;-77
2021/09/06 02:10:01;;;;;;;13.52;8.63;;;;;;;13.39;76.00;96819.56;4953715;29;20051;-75
2021/09/06 02:12:27;;;;;;;13.13;8.45;;;;;;;13.35;75.35;96820.53;4953578;29;20051;-75
2021/09/06 02:14:54;;;;;;;13.65;9.18;;;;;;;13.32;75.64;96819.28;4953594;29;20051;-78
2021/09/06 02:17:22;;;;;;;12.43;8.82;;;;;;;13.32;75.54;96822.81;4953274;29;20047;-78
2021/09/06 02:19:48;;;;;;;13.82;8.00;;;;;;;13.35;75.30;96823.28;4953409;29;20537;-76
2021/09/06 02:22:15;;;;;;;13.40;8.73;;;;;;;13.34;75.13;96822.47;4953327;29;20043;-76
2021/09/06 02:24:41;;;;;;;13.43;9.18;;;;;;;13.30;75.36;96833.25;4953519;29;20054;-75
2021/09/06 02:27:08;;;;;;;13.23;8.48;;;;;;;13.36;75.12;96835.81;4952953;29;20051;-76
2021/09/06 02:29:34;;;;;;;14.43;8.43;;;;;;;13.34;75.41;96832.63;4952977;28;20058;-75
2021/09/06 02:32:01;;;;;;;15.73;8.82;;;;;;;13.26;74.77;96832.31;4953150;29;20499;-76
2021/09/06 02:34:28;;;;;;;13.30;8.95;;;;;;;13.18;74.72;96835.81;4948603;29;20044;-75
2021/09/06 02:36:55;;;;;;;15.40;9.93;;;;;;;13.17;75.80;96826.00;4934365;29;20419;-76
2021/09/06 02:39:21;;;;;;;11.80;8.60;;;;;;;13.18;75.94;96830.34;4933398;29;20066;-77
2021/09/06 02:41:48;;;;;;;11.48;8.88;;;;;;;13.15;75.84;96832.91;4933973;29;20058;-76
2021/09/06 02:44:15;;;;;;;12.02;8.98;;;;;;;13.13;75.73;96833.25;4933245;29;20074;-76
2021/09/06 02:46:41;;;;;;;13.48;10.18;;;;;;;13.11;75.82;96829.25;4934149;29;20056;-76
2021/09/06 02:49:07;;;;;;;13.48;9.45;;;;;;;13.09;76.02;96826.00;4933458;29;20499;-76
2021/09/06 02:51:35;;;;;;;12.23;8.82;;;;;;;13.11;76.02;96830.03;4933901;29;20051;-78
2021/09/06 02:54:02;;;;;;;14.35;8.23;;;;;;;13.13;74.96;96821.50;4933486;29;20056;-78
2021/09/06 02:56:28;;;;;;;11.52;7.85;;;;;;;13.09;74.85;96826.81;4933798;29;20405;-76
2021/09/06 02:58:55;;;;;;;12.13;8.18;;;;;;;13.04;74.91;96832.44;4933663;29;20054;-78
2021/09/06 03:01:21;;;;;;;13.98;8.43;;;;;;;13.04;75.09;96832.44;4933292;29;20066;-77
2021/09/06 03:03:48;;;;;;;12.68;7.68;;;;;;;13.06;74.41;96828.28;4934117;29;20044;-79
2021/09/06 03:06:14;;;;;;;10.57;7.32;;;;;;;13.05;73.86;96836.81;4952062;28;20047;-77
2021/09/06 03:08:42;;;;;;;12.40;8.30;;;;;;;13.02;74.42;96831.97;4952884;29;20054;-76
2021/09/06 03:11:09;;;;;;;13.50;8.32;;;;;;;13.02;74.67;96829.22;4952185;29;20051;-75
2021/09/06 03:13:35;;;;;;;13.02;8.85;;;;;;;12.94;74.62;96825.34;4952691;29;20546;-78
2021/09/06 03:16:02;;;;;;;13.30;8.27;;;;;;;12.94;75.02;96830.03;4952193;28;20058;-78
2021/09/06 03:18:28;;;;;;;16.33;9.05;;;;;;;12.90;75.10;96840.00;4952952;29;20522;-75
2021/09/06 03:20:54;;;;;;;12.43;9.02;;;;;;;12.92;75.59;96840.47;4952585;29;20051;-77
2021/09/06 03:23:21;;;;;;;13.23;8.73;;;;;;;12.93;75.13;96831.97;4952351;29;20055;-76
2021/09/06 03:25:49;;;;;;;13.95;8.52;;;;;;;12.92;74.77;96824.09;4952800;29;20055;-76
2021/09/06 03:28:15;;;;;;;14.13;9.60;;;;;;;12.86;75.45;96826.19;4952251;29;20047;-78
2021/09/06 03:30:42;;;;;;;20.23;10.05;;;;;;;12.82;75.87;96827.13;4952643;29;20055;-78
2021/09/06 03:33:13;;;;;;;14.68;9.57;;;;;;;12.82;75.84;96824.41;4952129;28;20499;-76
2021/09/06 03:35:39;;;;;;;13.75;9.07;;;;;;;12.81;75.75;96829.06;4948305;29;20051;-77
2021/09/06 03:38:06;;;;;;;13.27;9.02;;;;;;;12.78;76.35;96822.28;4952032;28;20062;-76
2021/09/06 03:40:32;;;;;;;13.43;8.52;;;;;;;12.84;75.44;96827.59;4953119;28;20051;-78
2021/09/06 03:43:00;;;;;;;13.63;8.73;;;;;;;12.85;75.13;96831.97;4956557;29;20057;-75
2021/09/06 03:45:27;;;;;;;12.00;8.07;;;;;;;12.86;74.57;96833.56;4956231;28;20047;-75
2021/09/06 03:47:53;;;;;;;12.00;7.55;;;;;;;12.79;73.34;96823.94;4956660;29;20048;-77
2021/09/06 03:50:20;;;;;;;10.00;7.25;;;;;;;12.68;73.45;96830.00;4955973;28;20514;-75
2021/09/06 03:52:46;;;;;;;15.50;9.18;;;;;;;12.57;74.14;96832.25;4956319;29;20055;-80
2021/09/06 03:55:13;;;;;;;13.45;9.32;;;;;;;12.50;75.97;96821.00;4955793;29;20046;-75
2021/09/06 03:57:39;;;;;;;15.77;9.50;;;;;;;12.48;76.81;96828.72;4956327;29;20047;-77
2021/09/06 04:00:09;;;;;;;14.25;9.52;;;;;;;12.47;76.55;96827.06;4955776;29;20415;-75
2021/09/06 04:02:35;;;;;;;12.30;8.80;;;;;;;12.51;76.15;96828.84;4956353;29;20055;-76
2021/09/06 04:05:02;;;;;;;13.73;8.60;;;;;;;12.53;76.02;96825.81;4951076;29;20043;-79
2021/09/06 04:07:28;;;;;;;12.02;8.40;;;;;;;12.56;75.50;96830.63;4956058;29;20514;-76
2021/09/06 04:09:55;;;;;;;13.45;8.95;;;;;;;12.50;75.66;96837.38;4956051;29;20054;-76
2021/09/06 04:12:21;;;;;;;15.05;9.02;;;;;;;12.50;76.46;96837.38;4955691;29;20062;-75
2021/09/06 04:14:48;;;;;;;17.48;10.45;;;;;;;12.45;76.34;96830.13;4955866;29;20058;-76
2021/09/06 04:17:16;;;;;;;14.60;10.27;;;;;;;12.48;76.04;96836.91;4955622;29;20050;-75
2021/09/06 04:19:43;;;;;;;15.50;10.27;;;;;;;12.48;76.41;96845.09;4955785;29;20503;-76
2021/09/06 04:22:09;;;;;;;13.90;9.13;;;;;;;12.47;76.82;96848.94;4955246;28;20062;-77
2021/09/06 04:24:36;;;;;;;15.82;9.38;;;;;;;12.48;76.17;96845.09;4955827;29;20043;-77
2021/09/06 04:27:03;;;;;;;15.82;9.32;;;;;;;12.53;75.67;96842.22;4955432;29;20051;-77
2021/09/06 04:29:30;;;;;;;14.93;9.10;;;;;;;12.52;75.25;96841.38;4955570;29;20043;-75
2021/09/06 04:31:56;;;;;;;13.50;9.02;;;;;;;12.53;75.60;96843.03;4955686;29;20056;-77
2021/09/06 04:34:24;;;;;;;15.60;9.30;;;;;;;12.57;75.09;96848.63;4950578;28;20048;-76
2021/09/06 04:36:50;;;;;;;13.60;9.65;;;;;;;12.59;75.00;96846.41;4955295;29;20047;-75
2021/09/06 04:39:17;;;;;;;16.10;10.35;;;;;;;12.58;74.91;96850.25;4954910;28;20051;-75
2021/09/06 04:41:43;;;;;;;14.70;10.27;;;;;;;12.59;75.10;96853.78;4955378;28;20047;-77
2021/09/06 04:44:10;;;;;;;13.85;9.73;;;;;;;12.55;75.50;96845.44;4955069;29;20051;-77
2021/09/06 04:46:36;;;;;;;19.42;10.65;;;;;;;12.54;75.49;96849.28;4955375;28;20055;-78
2021/09/06 04:49:04;;;;;;;25.13;12.25;;;;;;;12.47;75.53;96857.94;4954670;29;20503;-78
2021/09/06 04:51:32;;;;;;;14.80;10.82;;;;;;;12.41;75.89;96859.19;4955176;28;20059;-78
2021/09/06 04:53:58;;;;;;;18.75;12.38;;;;;;;12.36;75.91;96864.81;4954921;29;20047;-76
2021/09/06 04:56:25;;;;;;;19.83;12.45;;;;;;;12.40;77.08;96865.00;4954641;29;20055;-75
2021/09/06 04:58:51;;;;;;;17.58;12.68;;;;;;;12.41;77.21;96861.13;4954979;29;20063;-76
2021/09/06 05:01:18;;;;;;;21.35;12.02;;;;;;;12.42;77.21;96877.19;4954569;29;20051;-75
2021/09/06 05:03:46;;;;;;;17.45;11.20;;;;;;;12.40;77.10;96870.44;4954744;29;20047;-76
2021/09/06 05:06:12;;;;;;;16.17;10.70;;;;;;;12.40;77.15;96873.19;4950343;28;20062;-76
2021/09/06 05:08:40;;;;;;;14.77;9.73;;;;;;;12.40;77.14;96875.91;4954908;29;20047;-78
2021/09/06 05:11:07;;;;;;;15.35;10.00;;;;;;;12.42;76.94;96879.13;4954339;29;20058;-80
2021/09/06 05:13:33;;;;;;;13.48;9.93;;;;;;;12.43;76.60;96875.28;4955024;29;20051;-77
2021/09/06 05:16:00;;;;;;;14.23;9.68;;;;;;;12.48;76.89;96883.34;4954719;29;20058;-81
2021/09/06 05:18:26;;;;;;;15.80;9.55;;;;;;;12.48;76.99;96877.88;4954452;29;20054;-79
2021/09/06 05:20:54;;;;;;;13.63;10.00;;;;;;;12.52;76.96;96889.75;4954588;29;20047;-77
2021/09/06 05:23:20;;;;;;;13.48;9.07;;;;;;;12.60;74.92;96891.72;4954123;29;20047;-77
2021/09/06 05:25:48;;;;;;;17.00;8.13;;;;;;;12.63;74.63;96887.53;4954572;28;20047;-77
2021/09/06 05:28:15;;;;;;;13.90;7.90;;;;;;;12.59;73.83;96894.78;4954122;29;20498;-76
2021/09/06 05:30:41;;;;;;;11.57;8.32;;;;;;;12.56;74.79;96898.13;4954682;29;20051;-80
2021/09/06 05:33:08;;;;;;;14.63;8.70;;;;;;;12.54;74.97;96898.47;4953875;29;20054;-79
2021/09/06 05:35:34;;;;;;;15.27;8.70;;;;;;;12.52;75.70;96895.22;4952462;29;20044;-77
2021/09/06 05:38:01;;;;;;;21.98;10.60;;;;;;;12.52;75.72;96896.03;4954006;28;20051;-76
2021/09/06 05:40:27;;;;;;;16.52;10.63;;;;;;;12.56;76.34;96896.19;4954178;29;20050;-78
2021/09/06 05:42:55;;;;;;;15.75;10.48;;;;;;;12.62;76.56;96894.13;4954361;29;20054;-74
2021/09/06 05:45:22;;;;;;;15.13;10.68;;;;;;;12.69;77.13;96900.75;4953930;29;20073;-76
2021/09/06 05:47:49;;;;;;;15.70;10.43;;;;;;;12.76;77.33;96903.81;4954206;29;20047;-77
2021/09/06 05:50:18;;;;;;;15.85;11.52;;;;;;;12.84;77.57;96902.19;4953714;29;20122;-77
2021/09/06 05:52:44;;;;;;;16.02;11.15;;;;;;;12.92;77.54;96903.34;4954356;29;20058;-78
2021/09/06 05:55:11;;;;;;;16.95;11.55;;;;;;;12.97;77.53;96906.75;4953539;29;20102;-78
2021/09/06 05:57:38;;;;;;;16.67;11.85;;;;;;;13.05;76.96;96902.41;4953904;29;20058;-77
2021/09/06 06:00:07;;;;;;;21.52;12.68;;;;;;;13.14;76.70;96911.41;4953650;29;20043;-79
2021/09/06 06:02:34;;;;;;;19.25;13.63;;;;;;;13.18;77.67;96906.13;4953907;29;20415;-79
2021/09/06 06:05:00;;;;;;;20.05;12.65;;;;;;;13.21;77.20;96910.94;4952877;28;20495;-78
2021/09/06 06:07:27;;;;;;;18.42;12.80;;;;;;;13.25;77.40;96915.47;4953609;29;20047;-79
2021/09/06 06:09:53;;;;;;;22.73;15.23;;;;;;;13.33;76.92;96913.88;4953826;29;20422;-79
2021/09/06 06:12:20;;;;;;;21.02;15.38;;;;;;;13.37;76.93;96914.84;4953275;29;20047;-76
2021/09/06 06:14:46;;;;;;;22.38;15.48;;;;;;;13.45;77.51;96927.69;4953927;29;20067;-76
2021/09/06 06:17:14;;;;;;;22.52;15.50;;;;;;;13.48;77.03;96931.75;4953120;29;20058;-77
2021/09/06 06:19:41;;;;;;;21.75;16.00;;;;;;;13.61;77.70;96930.75;4953933;29;20066;-76
2021/09/06 06:22:07;;;;;;;22.08;15.23;;;;;;;13.77;77.82;96929.13;4953212;29;20043;-75
2021/09/06 06:24:34;;;;;;;24.23;16.08;;;;;;;13.91;77.49;96930.88;4953569;29;20075;-76
2021/09/06 06:27:00;;;;;;;23.20;15.98;;;;;;;13.97;77.39;96930.38;4953427;29;20073;-77
2021/09/06 06:29:27;;;;;;;22.33;15.50;;;;;;;14.07;76.84;96931.97;4953189;29;20050;-75
2021/09/06 06:31:53;;;;;;;25.27;17.08;;;;;;;14.13;75.43;96930.66;4953473;29;20055;-76
2021/09/06 06:34:21;;;;;;;23.17;16.52;;;;;;;14.16;75.95;96935.50;4952100;29;20048;-78
2021/09/06 06:36:47;;;;;;;21.95;16.00;;;;;;;14.24;76.02;96944.81;4953261;29;20523;-75
2021/09/06 06:39:14;;;;;;;24.73;16.55;;;;;;;14.38;76.02;96939.13;4952619;29;20050;-76
2021/09/06 06:41:42;;;;;;;27.30;17.73;;;;;;;14.53;76.28;96944.88;4953159;29;20051;-76
2021/09/06 06:44:08;;;;;;;26.67;18.00;;;;;;;14.62;75.40;96942.13;4952634;29;20046;-77
2021/09/06 06:46:35;;;;;;;23.95;17.80;;;;;;;14.69;75.06;96945.13;4953127;29;20050;-76
2021/09/06 06:49:01;;;;;;;27.02;19.00;;;;;;;14.82;74.80;96948.78;4952663;29;20102;-80
2021/09/06 06:51:29;;;;;;;25.38;16.40;;;;;;;14.93;75.33;96952.78;4953277;29;20051;-76
2021/09/06 06:53:55;;;;;;;28.88;19.02;;;;;;;15.03;74.60;96951.56;4953121;29;20422;-75
2021/09/06 06:56:22;;;;;;;25.50;17.02;;;;;;;15.16;73.87;96955.22;4952815;29;20070;-75
2021/09/06 06:58:48;;;;;;;22.25;16.92;;;;;;;15.26;74.11;96950.13;4952928;29;20062;-76
2021/09/06 07:01:15;;;;;;;28.58;18.33;;;;;;;15.37;73.10;96956.81;4952336;29;20518;-77
2021/09/06 07:03:41;;;;;;;24.52;18.00;;;;;;;15.48;73.86;96950.94;4952918;28;20494;-75
2021/09/06 07:06:08;;;;;;;25.42;17.92;;;;;;;15.66;73.87;96955.19;4952060;29;20054;-75
2021/09/06 07:08:36;;;;;;;26.13;17.17;;;;;;;15.76;72.49;96956.69;4953172;29;20051;-75
2021/09/06 07:11:02;;;;;;;22.02;15.85;;;;;;;15.85;71.63;96960.19;4952358;29;20051;-75
2021/09/06 07:13:29;;;;;;;25.48;17.58;;;;;;;15.95;71.60;96970.75;4952851;28;20398;-77
2021/09/06 07:15:55;;;;;;;27.45;17.27;;;;;;;16.07;70.81;96961.72;4952116;28;20055;-76
2021/09/06 07:18:22;;;;;;;23.15;16.25;;;;;;;16.23;71.09;96964.66;4952196;29;20058;-76
2021/09/06 07:20:48;;;;;;;25.73;17.50;;;;;;;16.48;70.73;96971.00;4952853;29;20047;-76
2021/09/06 07:23:15;;;;;;;23.65;16.83;;;;;;;17.31;67.73;96976.09;4952163;29;20053;-77
2021/09/06 07:25:43;;;;;;;20.08;15.57;;;;;;;18.65;64.10;96972.00;4952713;29;20051;-76
2021/09/06 07:28:10;;;;;;;23.63;15.55;;;;;;;19.83;60.49;96980.31;4952030;29;20044;-76
2021/09/06 07:30:37;;;;;;;20.38;14.25;;;;;;;20.85;57.98;96977.94;4952779;29;20043;-76
2021/09/06 07:33:06;;;;;;;21.08;13.55;;;;;;;21.66;52.91;96976.00;4952337;29;20044;-77
2021/09/06 07:35:33;;;;;;;20.70;14.25;;;;;;;22.28;51.37;96965.31;4952083;29;20511;-76
2021/09/06 07:37:59;;;;;;;18.60;13.93;;;;;;;22.90;49.88;96979.44;4952408;28;20062;-76
2021/09/06 07:40:26;;;;;;;18.88;12.98;;;;;;;23.44;49.57;96977.88;4951921;29;20043;-76
2021/09/06 07:42:55;;;;;;;18.73;12.75;;;;;;;23.98;46.84;96978.22;4952396;29;20047;-76
2021/09/06 07:45:21;;;;;;;18.95;12.63;;;;;;;24.31;45.74;96982.69;4951912;29;20051;-77
2021/09/06 07:47:48;;;;;;;16.58;12.70;;;;;;;24.70;45.90;96982.84;4952069;29;20053;-77
2021/09/06 07:50:18;;;;;;;20.38;13.15;;;;;;;25.05;44.14;96978.47;4951821;29;20051;-77
2021/09/06 07:52:45;;;;;;;18.10;13.07;;;;;;;25.29;43.46;96988.06;4952271;29;20047;-77
2021/09/06 07:55:12;;;;;;;18.25;12.93;;;;;;;25.66;44.58;96988.41;4951692;29;20054;-77
2021/09/06 07:57:38;;;;;;;19.38;13.65;;;;;;;26.02;44.33;96986.34;4952248;28;20047;-78
2021/09/06 08:00:07;;;;;;;19.13;13.55;;;;;;;26.41;41.71;96987.38;4951808;29;20052;-76
2021/09/06 08:02:39;;;;;;;20.50;13.32;;;;;;;26.74;40.42;96984.03;4952140;29;20051;-78
2021/09/06 08:05:06;;;;;;;15.85;11.75;;;;;;;27.05;41.71;96989.78;4950950;29;20058;-77
2021/09/06 08:07:33;;;;;;;17.40;13.05;;;;;;;27.35;40.88;96991.16;4952165;28;20055;-77
2021/09/06 08:09:59;;;;;;;18.63;12.38;;;;;;;27.56;40.52;96990.97;4951999;29;20062;-78
2021/09/06 08:12:26;;;;;;;16.48;11.45;;;;;;;27.52;39.31;96993.03;4951481;28;20047;-77
2021/09/06 08:14:52;;;;;;;14.52;10.90;;;;;;;27.89;39.06;96997.06;4951980;29;20051;-76
2021/09/06 08:17:20;;;;;;;17.63;12.00;;;;;;;27.88;39.69;96993.47;4951616;29;20051;-78
2021/09/06 08:19:47;;;;;;;15.60;12.63;;;;;;;27.74;39.65;96988.81;4952054;29;20055;-76
2021/09/06 08:22:13;;;;;;;15.75;12.20;;;;;;;28.07;38.58;96995.63;4951497;28;20048;-77
2021/09/06 08:24:43;;;;;;;17.42;11.88;;;;;;;28.38;40.09;96997.72;4952146;29;20055;-76
2021/09/06 08:27:09;;;;;;;15.80;11.85;;;;;;;28.67;37.96;96998.91;4953088;28;20378;-77
2021/09/06 08:29:36;;;;;;;15.60;12.40;;;;;;;28.79;39.01;96995.53;4955576;29;20051;-76
2021/09/06 08:32:03;;;;;;;16.92;12.48;;;;;;;28.99;37.99;96995.66;4954854;29;20043;-77
2021/09/06 08:34:31;;;;;;;16.83;12.43;;;;;;;29.14;36.44;97001.06;4954825;29;20054;-76
2021/09/06 08:36:57;;;;;;;19.00;12.93;;;;;;;28.94;35.33;97006.56;4955375;29;20051;-75
2021/09/06 08:39:24;;;;;;;14.60;11.38;;;;;;;29.15;36.96;96997.03;4954606;28;20055;-76
2021/09/06 08:41:51;;;;;;;15.75;12.02;;;;;;;29.30;37.88;97001.97;4955327;29;20054;-77
2021/09/06 08:44:17;;;;;;;16.85;11.73;;;;;;;29.60;36.35;97009.53;4954710;28;20051;-77
2021/09/06 08:46:45;;;;;;;13.90;11.00;;;;;;;29.86;35.58;97010.66;4955172;29;20504;-76
2021/09/06 08:49:12;;;;;;;16.70;11.52;;;;;;;30.13;34.97;97013.38;4954893;28;20044;-77
2021/09/06 08:51:40;;;;;;;13.43;10.32;;;;;;;30.20;34.06;97011.63;4955047;29;20520;-78
2021/09/06 08:54:06;;;;;;;13.48;10.73;;;;;;;30.18;34.72;97009.28;4954375;29;20048;-76
2021/09/06 08:56:33;;;;;;;14.93;11.25;;;;;;;30.18;32.21;97008.47;4955090;29;20047;-76
2021/09/06 08:59:00;;;;;;;14.40;10.88;;;;;;;30.07;34.92;97008.63;4955170;29;20047;-78
2021/09/06 09:01:37;;;;;;;15.40;11.60;;;;;;;30.27;33.91;97009.47;4954577;29;20055;-77
2021/09/06 09:04:14;;;;;;;14.45;10.15;;;;;;;30.28;33.47;97002.66;4954083;29;20047;-77
2021/09/06 09:06:42;;;;;;;20.40;12.15;;;;;;;30.37;33.13;97008.44;4954997;29;20101;-76
2021/09/06 09:09:09;;;;;;;15.68;13.13;;;;;;;30.40;34.42;97001.97;4954339;29;20050;-77
2021/09/06 09:11:36;;;;;;;24.10;12.07;;;;;;;30.54;33.83;97002.88;4954961;29;20059;-76
2021/09/06 09:14:11;;;;;;;16.65;12.57;;;;;;;30.65;33.81;97003.47;4954420;29;20051;-79
2021/09/06 09:16:39;;;;;;;14.68;12.32;;;;;;;30.69;32.65;97001.34;4954776;29;20078;-77
2021/09/06 09:19:07;;;;;;;17.20;11.43;;;;;;;30.58;32.13;97006.41;4954018;29;20075;-77
2021/09/06 09:21:34;;;;;;;14.98;11.48;;;;;;;30.58;32.40;97003.59;4954505;29;20563;-77
2021/09/06 09:24:02;;;;;;;17.20;12.55;;;;;;;30.67;32.81;97001.00;4954601;29;20047;-78
2021/09/06 09:26:29;;;;;;;15.50;12.93;;;;;;;30.82;33.84;97009.94;4954273;29;20406;-76
2021/09/06 09:28:56;;;;;;;14.43;11.48;;;;;;;30.89;32.81;97004.16;4954665;29;20051;-77
2021/09/06 09:31:23;;;;;;;18.08;11.27;;;;;;;30.50;33.43;97013.44;4953808;29;20047;-77
2021/09/06 09:33:51;;;;;;;14.52;10.57;;;;;;;30.36;34.44;97004.06;4954533;29;20055;-77
2021/09/06 09:36:28;;;;;;;11.90;9.93;;;;;;;30.16;34.69;97011.69;4953162;29;20055;-75
2021/09/06 09:39:06;;;;;;;12.70;9.88;;;;;;;29.84;33.67;97013.09;4953183;28;20229;-76
2021/09/06 09:41:33;;;;;;;12.60;10.48;;;;;;;29.37;36.21;97006.69;4954122;28;20051;-76
2021/09/06 09:44:06;;;;;;;13.00;10.57;;;;;;;28.79;37.27;97009.53;4954415;29;20047;-78
2021/09/06 09:46:33;;;;;;;13.18;10.05;;;;;;;28.27;37.76;97001.41;4954206;29;20054;-78
2021/09/06 09:49:09;;;;;;;12.27;10.13;;;;;;;27.78;39.55;97003.56;4954054;29;20054;-77
2021/09/06 09:51:36;;;;;;;12.30;10.10;;;;;;;27.36;41.42;97006.75;4954009;29;20048;-77
2021/09/06 09:54:05;;;;;;;14.30;11.60;;;;;;;27.01;40.85;97000.19;4953411;29;20066;-78
2021/09/06 09:56:32;;;;;;;14.73;11.30;;;;;;;26.69;42.46;97008.81;4954199;29;20133;-77
2021/09/06 09:58:58;;;;;;;15.77;11.27;;;;;;;26.42;41.99;97000.97;4953802;29;20047;-77
2021/09/06 10:01:28;;;;;;;13.25;9.82;;;;;;;26.27;42.63;97005.00;4953637;29;20053;-77
2021/09/06 10:03:58;;;;;;;13.50;10.85;;;;;;;26.02;44.27;97002.28;4953810;29;20051;-76
2021/09/06 10:06:26;;;;;;;13.95;9.85;;;;;;;25.94;43.74;97003.50;4953096;29;20066;-78
2021/09/06 10:08:53;;;;;;;14.85;10.50;;;;;;;25.91;43.98;96998.75;4953995;29;20051;-78
2021/09/06 10:11:21;;;;;;;14.38;10.85;;;;;;;25.93;43.25;96993.53;4953042;29;20051;-76
2021/09/06 10:13:47;;;;;;;13.63;11.32;;;;;;;25.87;42.53;96992.38;4953683;29;20047;-78
2021/09/06 10:16:14;;;;;;;13.30;10.25;;;;;;;25.78;44.60;97001.16;4953082;29;20040;-76
2021/09/06 10:18:42;;;;;;;16.98;11.77;;;;;;;25.74;45.18;96994.78;4953543;29;20048;-77
2021/09/06 10:21:14;;;;;;;14.30;10.45;;;;;;;25.69;44.53;96995.97;4952921;29;20131;-76
2021/09/06 10:23:44;;;;;;;17.05;10.93;;;;;;;25.76;44.21;96990.41;4953566;29;20360;-76
2021/09/06 10:26:11;;;;;;;15.80;10.30;;;;;;;25.66;45.10;96988.41;4953513;29;20055;-78
2021/09/06 10:28:40;;;;;;;14.73;11.43;;;;;;;25.60;44.48;96987.22;4953156;29;20043;-77
2021/09/06 10:31:17;;;;;;;15.27;10.68;;;;;;;25.44;44.02;96984.88;4952879;29;20043;-78
2021/09/06 10:33:44;;;;;;;12.57;9.93;;;;;;;25.38;45.93;96985.69;4953260;29;20518;-77
2021/09/06 10:36:12;;;;;;;13.73;10.32;;;;;;;25.37;45.64;96981.28;4952462;29;20047;-78
2021/09/06 10:38:42;;;;;;;15.07;11.15;;;;;;;25.20;45.31;96994.03;4953089;29;20057;-79
2021/09/06 10:41:12;;;;;;;13.82;10.18;;;;;;;25.01;46.22;96986.84;4952851;29;20048;-78
2021/09/06 10:43:45;;;;;;;14.63;11.23;;;;;;;24.89;46.39;96984.44;4953308;29;20615;-77
2021/09/06 10:46:12;;;;;;;;;;;;;;;24.81;46.76;96985.63;4953153;29;20057;-79
2021/09/06 10:48:39;;;;;;;14.80;10.07;;;;;;;24.65;46.57;96986.00;4953269;29;19922;-78
2021/09/06 10:51:05;;;;;;;14.27;10.30;;;;;;;24.59;46.79;96991.16;4952662;28;20070;-77
2021/09/06 10:53:32;;;;;;;13.35;10.43;;;;;;;24.51;45.18;96977.63;4953075;29;20071;-79
2021/09/06 10:56:01;;;;;;;14.25;9.63;;;;;;;24.44;47.45;96983.97;4953012;29;20418;-77
2021/09/06 10:58:29;;;;;;;15.95;10.52;;;;;;;24.43;46.51;96982.34;4952860;29;20047;-77
2021/09/06 11:00:59;;;;;;;13.30;9.80;;;;;;;24.38;46.84;96988.31;4953003;29;20062;-76
2021/09/06 11:03:34;;;;;;;13.90;10.75;;;;;;;24.34;47.83;96993.06;4952405;29;20043;-75
2021/09/06 11:06:01;;;;;;;13.55;10.70;;;;;;;24.32;48.02;96985.06;4952951;29;20051;-76
2021/09/06 11:08:29;;;;;;;12.18;9.48;;;;;;;24.30;46.47;96981.09;4952366;29;20405;-78
2021/09/06 11:10:57;;;;;;;11.32;8.38;;;;;;;24.21;45.82;96982.25;4952841;29;20043;-77
2021/09/06 11:13:33;;;;;;;13.98;10.23;;;;;;;24.16;46.35;96976.28;4952538;29;20506;-78
2021/09/06 11:16:02;;;;;;;13.82;10.07;;;;;;;24.12;47.15;96981.06;4952775;29;20051;-78
2021/09/06 11:18:31;;;;;;;13.05;9.68;;;;;;;24.12;47.78;96975.50;4952418;29;20050;-77
2021/09/06 11:20:57;;;;;;;13.20;9.65;;;;;;;24.10;46.75;96977.84;4952870;29;20138;-76